This is the latest recevied weather packets stored in our database for station/object IQ8VX-3. If no packets are shown the sender has not sent any weather packets the latest 10 day(s).
| Time | Temp. | Humidity | Pressure | Rain* | Wind** | Luminosity | Snow |
|---|---|---|---|---|---|---|---|
| 1777455375 | 21.11° C | 61% | 1710.7 hPa | - | - | - | - |
| 1777454175 | 20° C | 73% | 1707.8 hPa | - | - | - | - |
| 1777452975 | 20° C | 74% | 1708.1 hPa | - | - | - | - |
| 1777451774 | 20° C | 74% | 1708.2 hPa | - | - | - | - |
| 1777450574 | 20° C | 75% | 1708 hPa | - | - | - | - |
| 1777449374 | 20° C | 76% | 1708.3 hPa | - | - | - | - |
| 1777448173 | 20.56° C | 74% | 1709.6 hPa | - | - | - | - |
| 1777446973 | 19.44° C | 75% | 1706.7 hPa | - | - | - | - |
| 1777445773 | 20° C | 74% | 1708.6 hPa | - | - | - | - |
| 1777444572 | 20° C | 77% | 1708.7 hPa | - | - | - | - |
| 1777443372 | 17.78° C | 75% | 1702.8 hPa | - | - | - | - |
| 1777442172 | 18.33° C | 72% | 1703.5 hPa | - | - | - | - |
| 1777440971 | 18.33° C | 73% | 1703.4 hPa | - | - | - | - |
| 1777439771 | 16.67° C | 71% | 1698.7 hPa | - | - | - | - |
| 1777438571 | 15.56° C | 82% | 1696.9 hPa | - | - | - | - |
| 1777437371 | 15.56° C | 82% | 1696 hPa | - | - | - | - |
| 1777436170 | 15° C | 80% | 1695.4 hPa | - | - | - | - |
| 1777434970 | 15° C | 77% | 1695.3 hPa | - | - | - | - |
| 1777433770 | 15° C | 79% | 1695.3 hPa | - | - | - | - |
| 1777432569 | 15.56° C | 81% | 1695.7 hPa | - | - | - | - |
| 1777431369 | 15.56° C | 77% | 1695.6 hPa | - | - | - | - |
| 1777430169 | 15.56° C | 76% | 1695.6 hPa | - | - | - | - |
| 1777428968 | 15.56° C | 75% | 1695.7 hPa | - | - | - | - |
| 1777427768 | 15.56° C | 77% | 1696.5 hPa | - | - | - | - |
| 1777426568 | 15.56° C | 76% | 1696.5 hPa | - | - | - | - |
* Rain since midnight (hover to see other rain measurements)
** Current wind speed in m/s (hover to see current wind gust speed)